DW9417 Weather Reports


Display with metric or nautical units.
time (UTC)temp
F
wind
direction
speed
MPH
gust
MPH
rain 1hr
in
rain 24hr
in
rain mn
in
humidity
%
barometer
mb
20220928064531 80 106 2.0 8.0 0.00 0.00 0.00 29 1016.5
20220928063027 81 107 4.0 8.0 0.00 0.00 0.00 29 1016.5
20220928061525 81 98 5.0 12.0 0.00 0.00 0.00 30 1016.7
20220928060024 81 86 2.0 7.0 0.00 0.00 0.00 31 1016.6
20220928054611 81 40 3.0 8.0 0.00 0.00 0.00 28 1016.8
20220928053018 81 23 0.0 6.0 0.00 0.00 0.00 29 1016.9
20220928051516 80 86 2.0 7.0 0.00 0.00 0.00 31 1017.1
20220928050012 80 42 5.0 11.0 0.00 0.00 0.00 31 1017.3
20220928044509 79 329 2.0 9.0 0.00 0.00 0.00 35 1017.5
20220928043006 79 5 1.0 9.0 0.00 0.00 0.00 37 1017.9
20220928041503 78 19 2.0 11.0 0.00 0.00 0.00 36 1018.2
20220928040100 77 332 3.0 8.0 0.00 0.00 0.00 37 1018.3
20220928034558 77 350 4.0 8.0 0.00 0.00 0.00 39 1018.6
20220928033055 77 46 2.0 8.0 0.00 0.00 0.00 42 1018.9
20220928031611 76 350 5.0 11.0 0.00 0.00 0.00 40 1019.1
20220928030113 76 331 2.0 8.0 0.00 0.00 0.00 41 1019.2
20220928024605 75 20 3.0 10.0 0.00 0.00 0.00 43 1019.3
20220928023049 75 5 5.0 12.0 0.00 0.00 0.00 43 1019.5
20220928021545 74 43 3.0 7.0 0.00 0.00 0.00 48 1019.6
20220928020049 73 53 1.0 7.0 0.00 0.00 0.00 49 1019.8
20220928014537 71 329 2.0 6.0 0.00 0.00 0.00 55 1019.7
20220928013033 67 74 0.0 3.0 0.00 0.00 0.00 64 1020.0
20220928011533 65 96 0.0 3.0 0.00 0.00 0.00 71 1020.1
20220928010024 62 84 1.0 3.0 0.00 0.00 0.00 77 1020.3
20220928004522 59 227 1.0 2.0 0.00 0.00 0.00 89 1020.3
20220928003025 56 227 0.0 2.0 0.00 0.00 0.00 94 1020.2
20220928001511 54 226 1.0 3.0 0.00 0.00 0.00 96 1020.0
20220928000007 52 127 1.0 2.0 0.00 0.00 0.00 96 1020.1
20220927234502 50 127 1.0 3.0 0.00 0.00 0.00 97 1020.1
20220927233110 47 127 0.0 1.0 0.00 0.00 0.00 97 1020.0
20220927231554 45 127 0.0 1.0 0.00 0.00 0.00 97 1020.0
20220927230053 44 127 0.0 1.0 0.00 0.00 0.00 96 1020.0
20220927224615 43 127 0.0 1.0 0.00 0.00 0.00 96 1020.0
20220927223054 42 127 0.0 2.0 0.00 0.00 0.00 95 1020.1
20220927221551 41 127 0.0 1.0 0.00 0.00 0.00 95 1019.9
20220927220106 40 127 0.0 3.0 0.00 0.00 0.00 94 1019.7
20220927214553 40 127 1.0 2.0 0.00 0.00 0.00 94 1019.7
20220927213105 41 127 0.0 3.0 0.00 0.00 0.00 94 1019.7
20220927211605 40 208 0.0 0.0 0.00 0.00 0.00 94 1019.6
20220927210048 41 208 0.0 0.0 0.00 0.00 0.00 93 1019.5
20220927204611 41 208 0.0 2.0 0.00 0.00 0.00 93 1019.4
20220927203040 41 208 1.0 3.0 0.00 0.00 0.00 93 1019.2
20220927201536 43 208 0.0 0.0 0.00 0.00 0.00 93 1018.9
20220927200047 44 208 0.0 0.0 0.00 0.00 0.00 93 1018.9
20220927194606 44 208 0.0 0.0 0.00 0.00 0.00 94 1018.7
20220927193115 44 208 0.0 0.0 0.00 0.00 0.00 93 1018.7
20220927191550 45 208 0.0 0.0 0.00 0.00 0.00 93 1018.7
20220927190031 45 208 0.0 0.0 0.00 0.00 0.00 94 1018.6
20220927184532 45 208 0.0 0.0 0.00 0.00 0.00 94 1018.7
20220927183030 44 208 0.0 0.0 0.00 0.00 0.00 94 1018.7
20220927181525 44 208 1.0 3.0 0.00 0.00 0.00 93 1019.0
20220927180026 44 43 0.0 1.0 0.00 0.00 0.00 93 1019.0
20220927174528 44 43 0.0 1.0 0.00 0.00 0.00 92 1019.1
20220927173024 44 43 0.0 2.0 0.00 0.00 0.00 92 1019.1
20220927171518 45 43 0.0 2.0 0.00 0.00 0.00 92 1019.3
20220927170043 45 43 0.0 0.0 0.00 0.00 0.00 93 1019.4
20220927164515 45 43 0.0 2.0 0.00 0.00 0.00 93 1019.6
20220927163014 45 43 1.0 2.0 0.00 0.00 0.00 93 1019.7
20220927161510 45 43 1.0 2.0 0.00 0.00 0.00 92 1019.8
20220927160008 45 43 1.0 2.0 0.00 0.00 0.00 92 1020.0
20220927154510 45 43 1.0 3.0 0.00 0.00 0.00 92 1019.9
20220927153007 45 43 0.0 2.0 0.00 0.00 0.00 92 1020.0
20220927151510 45 119 0.0 1.0 0.00 0.00 0.00 92 1020.0
20220927150010 45 119 0.0 4.0 0.00 0.00 0.00 91 1020.0
20220927144517 46 67 0.0 1.0 0.00 0.00 0.00 91 1020.1
20220927143010 46 67 0.0 2.0 0.00 0.00 0.00 91 1020.2
20220927141506 47 67 1.0 3.0 0.00 0.00 0.00 91 1020.1
20220927140002 47 351 0.0 1.0 0.00 0.00 0.00 91 1020.1
20220927134502 48 351 2.0 3.0 0.00 0.00 0.00 90 1020.2
20220927133002 48 351 1.0 2.0 0.00 0.00 0.00 89 1020.3
20220927131501 49 351 0.0 0.0 0.00 0.00 0.00 89 1020.3
20220927130001 50 351 0.0 1.0 0.00 0.00 0.00 89 1020.3
20220927124502 50 351 1.0 2.0 0.00 0.00 0.00 88 1020.3